sensor_id;sensor_type;location;lat;lon;timestamp;temperature;humidity
12426;DHT22;6277;49.824;9.562;2023-01-15T00:01:44;13.20;77.30
12426;DHT22;6277;49.824;9.562;2023-01-15T00:04:11;13.20;77.30
12426;DHT22;6277;49.824;9.562;2023-01-15T00:06:39;13.20;77.30
12426;DHT22;6277;49.824;9.562;2023-01-15T00:09:07;13.20;77.30
12426;DHT22;6277;49.824;9.562;2023-01-15T00:11:33;13.20;77.30
12426;DHT22;6277;49.824;9.562;2023-01-15T00:13:58;13.20;77.30
12426;DHT22;6277;49.824;9.562;2023-01-15T00:16:25;13.20;77.30
12426;DHT22;6277;49.824;9.562;2023-01-15T00:18:59;13.30;77.40
12426;DHT22;6277;49.824;9.562;2023-01-15T00:21:26;13.20;77.50
12426;DHT22;6277;49.824;9.562;2023-01-15T00:23:53;13.30;77.40
12426;DHT22;6277;49.824;9.562;2023-01-15T00:26:38;13.30;77.40
12426;DHT22;6277;49.824;9.562;2023-01-15T00:29:23;13.30;77.40
12426;DHT22;6277;49.824;9.562;2023-01-15T00:32:01;13.30;77.50
12426;DHT22;6277;49.824;9.562;2023-01-15T00:34:27;13.30;77.70
12426;DHT22;6277;49.824;9.562;2023-01-15T00:36:52;13.30;77.60
12426;DHT22;6277;49.824;9.562;2023-01-15T00:39:19;13.30;77.60
12426;DHT22;6277;49.824;9.562;2023-01-15T00:41:44;13.30;77.60
12426;DHT22;6277;49.824;9.562;2023-01-15T00:44:10;13.30;77.50
12426;DHT22;6277;49.824;9.562;2023-01-15T00:46:35;13.30;77.50
12426;DHT22;6277;49.824;9.562;2023-01-15T00:49:02;13.30;77.50
12426;DHT22;6277;49.824;9.562;2023-01-15T00:51:28;13.30;77.50
12426;DHT22;6277;49.824;9.562;2023-01-15T00:53:53;13.30;77.60
12426;DHT22;6277;49.824;9.562;2023-01-15T00:56:19;13.40;77.60
12426;DHT22;6277;49.824;9.562;2023-01-15T00:58:45;13.40;77.60
12426;DHT22;6277;49.824;9.562;2023-01-15T01:01:12;13.40;77.70
12426;DHT22;6277;49.824;9.562;2023-01-15T01:03:38;13.40;77.70
12426;DHT22;6277;49.824;9.562;2023-01-15T01:06:06;13.40;77.70
12426;DHT22;6277;49.824;9.562;2023-01-15T01:08:31;13.40;77.60
12426;DHT22;6277;49.824;9.562;2023-01-15T01:11:24;13.50;77.70
12426;DHT22;6277;49.824;9.562;2023-01-15T01:13:52;13.50;77.70
12426;DHT22;6277;49.824;9.562;2023-01-15T01:16:24;13.50;77.60
12426;DHT22;6277;49.824;9.562;2023-01-15T01:18:50;13.50;77.50
12426;DHT22;6277;49.824;9.562;2023-01-15T01:21:16;13.50;77.50
12426;DHT22;6277;49.824;9.562;2023-01-15T01:23:42;13.50;77.50
12426;DHT22;6277;49.824;9.562;2023-01-15T01:26:08;13.60;77.50
12426;DHT22;6277;49.824;9.562;2023-01-15T01:28:34;13.60;77.50
12426;DHT22;6277;49.824;9.562;2023-01-15T01:31:04;13.60;77.50
12426;DHT22;6277;49.824;9.562;2023-01-15T01:33:33;13.60;77.50
12426;DHT22;6277;49.824;9.562;2023-01-15T01:35:58;13.60;77.50
12426;DHT22;6277;49.824;9.562;2023-01-15T01:38:24;13.60;78.00
12426;DHT22;6277;49.824;9.562;2023-01-15T01:40:49;13.60;77.30
12426;DHT22;6277;49.824;9.562;2023-01-15T01:43:21;13.70;77.40
12426;DHT22;6277;49.824;9.562;2023-01-15T01:45:47;13.60;77.30
12426;DHT22;6277;49.824;9.562;2023-01-15T01:48:14;13.60;77.30
12426;DHT22;6277;49.824;9.562;2023-01-15T01:50:41;13.60;77.40
12426;DHT22;6277;49.824;9.562;2023-01-15T01:53:12;13.60;77.50
12426;DHT22;6277;49.824;9.562;2023-01-15T01:55:38;13.60;77.50
12426;DHT22;6277;49.824;9.562;2023-01-15T01:58:06;13.50;77.40
12426;DHT22;6277;49.824;9.562;2023-01-15T02:00:35;13.50;77.50
12426;DHT22;6277;49.824;9.562;2023-01-15T02:03:04;13.50;77.60
12426;DHT22;6277;49.824;9.562;2023-01-15T02:05:34;13.50;77.60
12426;DHT22;6277;49.824;9.562;2023-01-15T02:08:01;13.50;77.70
12426;DHT22;6277;49.824;9.562;2023-01-15T02:10:27;13.50;77.80
12426;DHT22;6277;49.824;9.562;2023-01-15T02:13:07;13.50;77.80
12426;DHT22;6277;49.824;9.562;2023-01-15T02:15:39;13.50;77.90
12426;DHT22;6277;49.824;9.562;2023-01-15T02:18:18;13.50;77.80
12426;DHT22;6277;49.824;9.562;2023-01-15T02:20:57;13.50;77.80
12426;DHT22;6277;49.824;9.562;2023-01-15T02:26:25;13.50;77.80
12426;DHT22;6277;49.824;9.562;2023-01-15T02:28:56;13.50;77.90
12426;DHT22;6277;49.824;9.562;2023-01-15T02:31:35;13.50;77.80
12426;DHT22;6277;49.824;9.562;2023-01-15T02:34:34;13.50;77.90
12426;DHT22;6277;49.824;9.562;2023-01-15T02:37:11;13.50;78.10
12426;DHT22;6277;49.824;9.562;2023-01-15T02:39:39;13.50;77.90
12426;DHT22;6277;49.824;9.562;2023-01-15T02:42:08;13.50;77.80
12426;DHT22;6277;49.824;9.562;2023-01-15T02:44:40;13.50;77.90
12426;DHT22;6277;49.824;9.562;2023-01-15T02:47:07;13.50;78.00
12426;DHT22;6277;49.824;9.562;2023-01-15T02:49:35;13.50;78.00
12426;DHT22;6277;49.824;9.562;2023-01-15T02:52:11;13.40;77.90
12426;DHT22;6277;49.824;9.562;2023-01-15T02:54:46;13.40;77.90
12426;DHT22;6277;49.824;9.562;2023-01-15T02:57:14;13.40;78.10
12426;DHT22;6277;49.824;9.562;2023-01-15T02:59:45;13.40;78.10
12426;DHT22;6277;49.824;9.562;2023-01-15T03:02:22;13.40;78.20
12426;DHT22;6277;49.824;9.562;2023-01-15T03:05:10;13.30;78.20
12426;DHT22;6277;49.824;9.562;2023-01-15T03:07:46;13.30;78.40
12426;DHT22;6277;49.824;9.562;2023-01-15T03:10:12;13.30;79.00
12426;DHT22;6277;49.824;9.562;2023-01-15T03:12:53;13.30;78.20
12426;DHT22;6277;49.824;9.562;2023-01-15T03:15:51;13.30;78.50
12426;DHT22;6277;49.824;9.562;2023-01-15T03:18:44;13.30;78.50
12426;DHT22;6277;49.824;9.562;2023-01-15T03:21:12;13.20;78.40
12426;DHT22;6277;49.824;9.562;2023-01-15T03:23:44;13.20;78.40
12426;DHT22;6277;49.824;9.562;2023-01-15T03:26:11;13.20;78.60
12426;DHT22;6277;49.824;9.562;2023-01-15T03:28:38;13.20;78.50
12426;DHT22;6277;49.824;9.562;2023-01-15T03:31:04;13.20;78.60
12426;DHT22;6277;49.824;9.562;2023-01-15T03:33:30;13.20;78.60
12426;DHT22;6277;49.824;9.562;2023-01-15T03:35:58;13.20;78.70
12426;DHT22;6277;49.824;9.562;2023-01-15T03:38:28;13.20;78.80
12426;DHT22;6277;49.824;9.562;2023-01-15T03:41:19;13.20;78.80
12426;DHT22;6277;49.824;9.562;2023-01-15T03:49:38;13.20;79.40
12426;DHT22;6277;49.824;9.562;2023-01-15T03:55:19;12.90;78.10
12426;DHT22;6277;49.824;9.562;2023-01-15T03:57:50;12.70;78.80
12426;DHT22;6277;49.824;9.562;2023-01-15T04:00:27;12.50;79.10
12426;DHT22;6277;49.824;9.562;2023-01-15T04:02:56;12.40;78.60
12426;DHT22;6277;49.824;9.562;2023-01-15T04:05:24;12.20;78.60
12426;DHT22;6277;49.824;9.562;2023-01-15T04:07:51;12.10;78.80
12426;DHT22;6277;49.824;9.562;2023-01-15T04:10:18;12.00;78.90
12426;DHT22;6277;49.824;9.562;2023-01-15T04:12:43;11.90;79.10
12426;DHT22;6277;49.824;9.562;2023-01-15T04:15:12;11.80;79.30
12426;DHT22;6277;49.824;9.562;2023-01-15T04:17:38;11.80;79.50
12426;DHT22;6277;49.824;9.562;2023-01-15T04:20:04;11.70;79.60
12426;DHT22;6277;49.824;9.562;2023-01-15T04:22:30;11.60;79.90
12426;DHT22;6277;49.824;9.562;2023-01-15T04:24:56;11.60;80.00
12426;DHT22;6277;49.824;9.562;2023-01-15T04:27:21;11.60;80.50
12426;DHT22;6277;49.824;9.562;2023-01-15T04:29:47;11.50;80.50
12426;DHT22;6277;49.824;9.562;2023-01-15T04:32:13;11.50;80.40
12426;DHT22;6277;49.824;9.562;2023-01-15T04:34:39;11.50;80.00
12426;DHT22;6277;49.824;9.562;2023-01-15T04:37:04;11.40;79.80
12426;DHT22;6277;49.824;9.562;2023-01-15T04:39:30;11.30;79.70
12426;DHT22;6277;49.824;9.562;2023-01-15T04:41:56;11.30;80.30
12426;DHT22;6277;49.824;9.562;2023-01-15T04:44:40;11.10;79.60
12426;DHT22;6277;49.824;9.562;2023-01-15T04:47:05;11.10;79.70
12426;DHT22;6277;49.824;9.562;2023-01-15T04:49:32;11.00;79.70
12426;DHT22;6277;49.824;9.562;2023-01-15T04:51:58;10.90;79.80
12426;DHT22;6277;49.824;9.562;2023-01-15T04:54:24;10.80;79.70
12426;DHT22;6277;49.824;9.562;2023-01-15T04:56:51;10.70;79.70
12426;DHT22;6277;49.824;9.562;2023-01-15T04:59:20;10.60;79.70
12426;DHT22;6277;49.824;9.562;2023-01-15T05:01:46;10.60;79.70
12426;DHT22;6277;49.824;9.562;2023-01-15T05:04:12;10.50;79.80
12426;DHT22;6277;49.824;9.562;2023-01-15T05:06:37;10.40;79.80
12426;DHT22;6277;49.824;9.562;2023-01-15T05:09:04;10.40;79.80
12426;DHT22;6277;49.824;9.562;2023-01-15T05:11:30;10.40;79.70
12426;DHT22;6277;49.824;9.562;2023-01-15T05:13:55;10.30;79.80
12426;DHT22;6277;49.824;9.562;2023-01-15T05:16:23;10.20;79.70
12426;DHT22;6277;49.824;9.562;2023-01-15T05:18:50;10.20;79.60
12426;DHT22;6277;49.824;9.562;2023-01-15T05:21:18;10.10;79.60
12426;DHT22;6277;49.824;9.562;2023-01-15T05:23:45;10.10;79.70
12426;DHT22;6277;49.824;9.562;2023-01-15T05:26:10;10.10;79.80
12426;DHT22;6277;49.824;9.562;2023-01-15T05:28:36;10.00;79.90
12426;DHT22;6277;49.824;9.562;2023-01-15T05:31:10;10.00;80.00
12426;DHT22;6277;49.824;9.562;2023-01-15T05:33:36;10.00;79.90
12426;DHT22;6277;49.824;9.562;2023-01-15T05:36:07;9.90;79.70
12426;DHT22;6277;49.824;9.562;2023-01-15T05:38:33;9.90;79.60
12426;DHT22;6277;49.824;9.562;2023-01-15T05:41:02;9.90;79.40
12426;DHT22;6277;49.824;9.562;2023-01-15T05:43:48;9.80;79.40
12426;DHT22;6277;49.824;9.562;2023-01-15T05:46:14;9.80;79.50
12426;DHT22;6277;49.824;9.562;2023-01-15T05:48:39;9.70;79.30
12426;DHT22;6277;49.824;9.562;2023-01-15T05:51:05;9.60;79.20
12426;DHT22;6277;49.824;9.562;2023-01-15T05:53:30;9.60;79.20
12426;DHT22;6277;49.824;9.562;2023-01-15T05:56:00;9.50;79.00
12426;DHT22;6277;49.824;9.562;2023-01-15T05:58:25;9.50;79.00
12426;DHT22;6277;49.824;9.562;2023-01-15T06:00:51;9.50;79.10
12426;DHT22;6277;49.824;9.562;2023-01-15T06:03:16;9.40;79.10
12426;DHT22;6277;49.824;9.562;2023-01-15T06:05:42;9.40;79.00
12426;DHT22;6277;49.824;9.562;2023-01-15T06:08:07;9.30;78.70
12426;DHT22;6277;49.824;9.562;2023-01-15T06:10:33;9.20;78.40
12426;DHT22;6277;49.824;9.562;2023-01-15T06:12:58;9.20;78.40
12426;DHT22;6277;49.824;9.562;2023-01-15T06:15:24;9.10;78.30
12426;DHT22;6277;49.824;9.562;2023-01-15T06:17:49;9.00;78.30
12426;DHT22;6277;49.824;9.562;2023-01-15T06:20:15;9.00;78.20
12426;DHT22;6277;49.824;9.562;2023-01-15T06:22:41;8.90;78.20
12426;DHT22;6277;49.824;9.562;2023-01-15T06:25:06;8.80;78.20
12426;DHT22;6277;49.824;9.562;2023-01-15T06:27:32;8.70;78.20
12426;DHT22;6277;49.824;9.562;2023-01-15T06:29:57;8.70;78.40
12426;DHT22;6277;49.824;9.562;2023-01-15T06:32:24;8.70;78.60
12426;DHT22;6277;49.824;9.562;2023-01-15T06:34:50;8.60;78.60
12426;DHT22;6277;49.824;9.562;2023-01-15T06:37:15;8.60;78.70
12426;DHT22;6277;49.824;9.562;2023-01-15T06:39:41;8.60;78.80
12426;DHT22;6277;49.824;9.562;2023-01-15T06:42:08;8.50;78.80
12426;DHT22;6277;49.824;9.562;2023-01-15T06:44:52;8.50;78.80
12426;DHT22;6277;49.824;9.562;2023-01-15T06:47:36;8.50;78.80
12426;DHT22;6277;49.824;9.562;2023-01-15T06:50:01;8.50;78.90
12426;DHT22;6277;49.824;9.562;2023-01-15T06:52:28;8.50;78.90
12426;DHT22;6277;49.824;9.562;2023-01-15T06:54:54;8.50;78.80
12426;DHT22;6277;49.824;9.562;2023-01-15T06:57:20;8.50;78.70
12426;DHT22;6277;49.824;9.562;2023-01-15T06:59:46;8.40;78.50
12426;DHT22;6277;49.824;9.562;2023-01-15T07:02:12;8.40;78.50
12426;DHT22;6277;49.824;9.562;2023-01-15T07:04:37;8.40;78.60
12426;DHT22;6277;49.824;9.562;2023-01-15T07:07:03;8.30;78.40
12426;DHT22;6277;49.824;9.562;2023-01-15T07:09:29;8.30;78.40
12426;DHT22;6277;49.824;9.562;2023-01-15T07:11:54;8.30;78.40
12426;DHT22;6277;49.824;9.562;2023-01-15T07:14:22;8.30;78.50
12426;DHT22;6277;49.824;9.562;2023-01-15T07:16:48;8.20;78.60
12426;DHT22;6277;49.824;9.562;2023-01-15T07:19:15;8.20;78.60
12426;DHT22;6277;49.824;9.562;2023-01-15T07:21:41;8.20;78.70
12426;DHT22;6277;49.824;9.562;2023-01-15T07:24:07;8.20;78.60
12426;DHT22;6277;49.824;9.562;2023-01-15T07:26:33;8.20;79.40
12426;DHT22;6277;49.824;9.562;2023-01-15T07:28:58;8.20;78.80
12426;DHT22;6277;49.824;9.562;2023-01-15T07:31:24;8.10;78.80
12426;DHT22;6277;49.824;9.562;2023-01-15T07:33:50;8.10;78.80
12426;DHT22;6277;49.824;9.562;2023-01-15T07:36:15;8.10;78.80
12426;DHT22;6277;49.824;9.562;2023-01-15T07:38:41;8.10;78.90
12426;DHT22;6277;49.824;9.562;2023-01-15T07:41:06;8.10;79.00
12426;DHT22;6277;49.824;9.562;2023-01-15T07:44:10;8.20;79.10
12426;DHT22;6277;49.824;9.562;2023-01-15T07:46:55;8.20;78.90
12426;DHT22;6277;49.824;9.562;2023-01-15T07:49:41;8.20;78.90
12426;DHT22;6277;49.824;9.562;2023-01-15T07:52:20;8.20;78.90
12426;DHT22;6277;49.824;9.562;2023-01-15T07:54:47;8.20;78.90
12426;DHT22;6277;49.824;9.562;2023-01-15T07:57:17;8.10;79.60
12426;DHT22;6277;49.824;9.562;2023-01-15T07:59:43;8.10;79.00
12426;DHT22;6277;49.824;9.562;2023-01-15T08:02:09;8.10;78.90
12426;DHT22;6277;49.824;9.562;2023-01-15T08:04:35;8.00;78.90
12426;DHT22;6277;49.824;9.562;2023-01-15T08:07:02;8.00;78.90
12426;DHT22;6277;49.824;9.562;2023-01-15T08:09:28;8.00;79.00
12426;DHT22;6277;49.824;9.562;2023-01-15T08:11:54;8.00;79.00
12426;DHT22;6277;49.824;9.562;2023-01-15T08:14:39;8.00;78.80
12426;DHT22;6277;49.824;9.562;2023-01-15T08:17:23;7.90;78.70
12426;DHT22;6277;49.824;9.562;2023-01-15T08:19:48;7.80;78.70
12426;DHT22;6277;49.824;9.562;2023-01-15T08:22:14;7.80;78.70
12426;DHT22;6277;49.824;9.562;2023-01-15T08:24:39;7.70;78.80
12426;DHT22;6277;49.824;9.562;2023-01-15T08:27:05;7.60;78.80
12426;DHT22;6277;49.824;9.562;2023-01-15T08:29:30;7.60;79.10
12426;DHT22;6277;49.824;9.562;2023-01-15T08:31:56;7.50;78.90
12426;DHT22;6277;49.824;9.562;2023-01-15T08:34:21;7.40;79.00
12426;DHT22;6277;49.824;9.562;2023-01-15T08:36:48;7.40;79.10
12426;DHT22;6277;49.824;9.562;2023-01-15T08:39:14;7.40;79.30
12426;DHT22;6277;49.824;9.562;2023-01-15T08:41:40;7.30;79.30
12426;DHT22;6277;49.824;9.562;2023-01-15T08:44:05;7.20;79.40
12426;DHT22;6277;49.824;9.562;2023-01-15T08:46:31;7.20;79.80
12426;DHT22;6277;49.824;9.562;2023-01-15T08:48:56;7.10;79.90
12426;DHT22;6277;49.824;9.562;2023-01-15T08:51:22;7.10;80.00
12426;DHT22;6277;49.824;9.562;2023-01-15T08:53:47;7.10;80.10
12426;DHT22;6277;49.824;9.562;2023-01-15T08:56:18;7.00;80.20
12426;DHT22;6277;49.824;9.562;2023-01-15T08:58:46;7.00;80.30
12426;DHT22;6277;49.824;9.562;2023-01-15T09:01:13;7.00;80.50
12426;DHT22;6277;49.824;9.562;2023-01-15T09:03:41;7.00;80.50
12426;DHT22;6277;49.824;9.562;2023-01-15T09:06:07;7.00;80.60
12426;DHT22;6277;49.824;9.562;2023-01-15T09:08:33;7.00;80.50
12426;DHT22;6277;49.824;9.562;2023-01-15T09:11:00;7.00;80.80
12426;DHT22;6277;49.824;9.562;2023-01-15T09:13:27;7.00;80.90
12426;DHT22;6277;49.824;9.562;2023-01-15T09:15:53;7.00;81.10
12426;DHT22;6277;49.824;9.562;2023-01-15T09:18:22;7.00;81.20
12426;DHT22;6277;49.824;9.562;2023-01-15T09:20:48;7.00;81.30
12426;DHT22;6277;49.824;9.562;2023-01-15T09:23:15;7.00;81.50
12426;DHT22;6277;49.824;9.562;2023-01-15T09:25:49;7.10;81.70
12426;DHT22;6277;49.824;9.562;2023-01-15T09:28:14;7.10;81.60
12426;DHT22;6277;49.824;9.562;2023-01-15T09:30:40;7.10;81.60
12426;DHT22;6277;49.824;9.562;2023-01-15T09:33:05;7.10;81.60
12426;DHT22;6277;49.824;9.562;2023-01-15T09:35:31;7.20;81.70
12426;DHT22;6277;49.824;9.562;2023-01-15T09:37:56;7.20;81.80
12426;DHT22;6277;49.824;9.562;2023-01-15T09:40:45;7.20;81.90
12426;DHT22;6277;49.824;9.562;2023-01-15T09:44:13;7.20;82.00
12426;DHT22;6277;49.824;9.562;2023-01-15T09:46:28;7.30;82.20
12426;DHT22;6277;49.824;9.562;2023-01-15T09:49:22;7.30;82.00
12426;DHT22;6277;49.824;9.562;2023-01-15T09:52:00;7.30;81.90
12426;DHT22;6277;49.824;9.562;2023-01-15T09:55:00;7.30;81.90
12426;DHT22;6277;49.824;9.562;2023-01-15T09:57:22;7.30;82.00
12426;DHT22;6277;49.824;9.562;2023-01-15T09:59:49;7.30;82.00
12426;DHT22;6277;49.824;9.562;2023-01-15T10:02:33;7.30;82.10
12426;DHT22;6277;49.824;9.562;2023-01-15T10:05:08;7.30;82.20
12426;DHT22;6277;49.824;9.562;2023-01-15T10:07:44;7.40;82.30
12426;DHT22;6277;49.824;9.562;2023-01-15T10:10:18;7.40;82.40
12426;DHT22;6277;49.824;9.562;2023-01-15T10:12:46;7.40;82.40
12426;DHT22;6277;49.824;9.562;2023-01-15T10:15:36;7.40;82.30
12426;DHT22;6277;49.824;9.562;2023-01-15T10:18:04;7.40;82.40
12426;DHT22;6277;49.824;9.562;2023-01-15T10:37:46;7.50;82.50
12426;DHT22;6277;49.824;9.562;2023-01-15T10:43:02;7.50;82.90
12426;DHT22;6277;49.824;9.562;2023-01-15T10:45:46;7.50;82.70
12426;DHT22;6277;49.824;9.562;2023-01-15T10:48:20;7.60;83.10
12426;DHT22;6277;49.824;9.562;2023-01-15T10:50:48;7.60;83.10
12426;DHT22;6277;49.824;9.562;2023-01-15T10:56:12;7.60;83.00
12426;DHT22;6277;49.824;9.562;2023-01-15T10:58:44;7.60;82.80
12426;DHT22;6277;49.824;9.562;2023-01-15T11:01:19;7.60;82.80
12426;DHT22;6277;49.824;9.562;2023-01-15T11:03:48;7.60;82.90
12426;DHT22;6277;49.824;9.562;2023-01-15T11:06:16;7.60;82.30
12426;DHT22;6277;49.824;9.562;2023-01-15T11:08:44;7.60;82.30
12426;DHT22;6277;49.824;9.562;2023-01-15T11:11:18;7.60;82.40
12426;DHT22;6277;49.824;9.562;2023-01-15T11:13:52;7.50;82.50
12426;DHT22;6277;49.824;9.562;2023-01-15T11:16:40;7.50;82.70
12426;DHT22;6277;49.824;9.562;2023-01-15T11:19:30;7.50;82.60
12426;DHT22;6277;49.824;9.562;2023-01-15T11:24:47;7.40;83.00
12426;DHT22;6277;49.824;9.562;2023-01-15T11:27:16;7.40;83.20
12426;DHT22;6277;49.824;9.562;2023-01-15T11:29:43;7.40;83.50
12426;DHT22;6277;49.824;9.562;2023-01-15T11:32:31;7.50;83.70
12426;DHT22;6277;49.824;9.562;2023-01-15T11:35:23;7.50;84.00
12426;DHT22;6277;49.824;9.562;2023-01-15T11:37:48;7.60;84.10
12426;DHT22;6277;49.824;9.562;2023-01-15T11:40:19;7.70;83.80
12426;DHT22;6277;49.824;9.562;2023-01-15T11:42:49;7.70;83.80
12426;DHT22;6277;49.824;9.562;2023-01-15T11:45:34;7.70;83.50
12426;DHT22;6277;49.824;9.562;2023-01-15T11:48:42;7.80;83.60
12426;DHT22;6277;49.824;9.562;2023-01-15T11:51:28;7.80;83.50
12426;DHT22;6277;49.824;9.562;2023-01-15T11:54:01;7.80;83.40
12426;DHT22;6277;49.824;9.562;2023-01-15T11:56:29;7.80;83.40
12426;DHT22;6277;49.824;9.562;2023-01-15T11:58:58;7.80;83.40
12426;DHT22;6277;49.824;9.562;2023-01-15T12:01:29;7.80;83.30
12426;DHT22;6277;49.824;9.562;2023-01-15T12:03:57;7.80;83.10
12426;DHT22;6277;49.824;9.562;2023-01-15T12:06:24;7.80;83.10
12426;DHT22;6277;49.824;9.562;2023-01-15T12:09:12;7.70;83.10
12426;DHT22;6277;49.824;9.562;2023-01-15T12:14:34;7.80;83.50
12426;DHT22;6277;49.824;9.562;2023-01-15T12:20:29;7.80;83.40
12426;DHT22;6277;49.824;9.562;2023-01-15T12:23:30;7.80;83.30
12426;DHT22;6277;49.824;9.562;2023-01-15T12:31:43;7.70;82.50
12426;DHT22;6277;49.824;9.562;2023-01-15T12:34:24;7.70;82.20
12426;DHT22;6277;49.824;9.562;2023-01-15T12:36:57;7.60;82.30
12426;DHT22;6277;49.824;9.562;2023-01-15T12:39:28;7.50;82.30
12426;DHT22;6277;49.824;9.562;2023-01-15T12:42:01;7.50;82.30
12426;DHT22;6277;49.824;9.562;2023-01-15T12:44:50;7.40;82.00
12426;DHT22;6277;49.824;9.562;2023-01-15T12:53:36;7.20;82.80
12426;DHT22;6277;49.824;9.562;2023-01-15T12:59:27;7.20;83.40
12426;DHT22;6277;49.824;9.562;2023-01-15T13:02:20;7.20;83.30
12426;DHT22;6277;49.824;9.562;2023-01-15T13:04:54;7.20;83.20
12426;DHT22;6277;49.824;9.562;2023-01-15T13:07:37;7.20;83.20
12426;DHT22;6277;49.824;9.562;2023-01-15T13:10:13;7.20;83.60
12426;DHT22;6277;49.824;9.562;2023-01-15T13:12:40;7.20;83.50
12426;DHT22;6277;49.824;9.562;2023-01-15T13:15:06;7.10;83.00
12426;DHT22;6277;49.824;9.562;2023-01-15T13:20:47;7.10;83.10
12426;DHT22;6277;49.824;9.562;2023-01-15T13:23:25;7.10;83.10
12426;DHT22;6277;49.824;9.562;2023-01-15T13:32:09;7.10;83.90
12426;DHT22;6277;49.824;9.562;2023-01-15T13:37:23;7.20;84.30
12426;DHT22;6277;49.824;9.562;2023-01-15T13:39:57;7.30;84.30
12426;DHT22;6277;49.824;9.562;2023-01-15T13:42:25;7.30;84.40
12426;DHT22;6277;49.824;9.562;2023-01-15T13:45:02;7.40;84.70
12426;DHT22;6277;49.824;9.562;2023-01-15T13:47:32;7.50;85.50
12426;DHT22;6277;49.824;9.562;2023-01-15T13:50:03;7.60;85.00
12426;DHT22;6277;49.824;9.562;2023-01-15T13:52:33;7.70;85.00
12426;DHT22;6277;49.824;9.562;2023-01-15T13:55:22;7.80;84.90
12426;DHT22;6277;49.824;9.562;2023-01-15T13:57:50;7.90;84.80
12426;DHT22;6277;49.824;9.562;2023-01-15T14:00:32;8.00;84.60
12426;DHT22;6277;49.824;9.562;2023-01-15T14:03:00;8.10;84.50
12426;DHT22;6277;49.824;9.562;2023-01-15T14:05:32;8.20;84.40
12426;DHT22;6277;49.824;9.562;2023-01-15T14:07:59;8.20;84.30
12426;DHT22;6277;49.824;9.562;2023-01-15T14:13:17;8.30;84.20
12426;DHT22;6277;49.824;9.562;2023-01-15T14:16:03;8.30;84.00
12426;DHT22;6277;49.824;9.562;2023-01-15T14:18:56;8.30;84.00
12426;DHT22;6277;49.824;9.562;2023-01-15T14:21:34;8.40;84.20
12426;DHT22;6277;49.824;9.562;2023-01-15T14:27:00;8.50;84.00
12426;DHT22;6277;49.824;9.562;2023-01-15T14:29:39;8.50;83.90
12426;DHT22;6277;49.824;9.562;2023-01-15T14:32:27;8.50;84.00
12426;DHT22;6277;49.824;9.562;2023-01-15T14:34:58;8.60;84.00
12426;DHT22;6277;49.824;9.562;2023-01-15T14:37:50;8.60;84.00
12426;DHT22;6277;49.824;9.562;2023-01-15T14:40:37;8.70;83.80
12426;DHT22;6277;49.824;9.562;2023-01-15T14:43:14;8.70;84.00
12426;DHT22;6277;49.824;9.562;2023-01-15T14:45:44;8.70;83.20
12426;DHT22;6277;49.824;9.562;2023-01-15T14:50:53;8.70;82.50
12426;DHT22;6277;49.824;9.562;2023-01-15T14:53:23;8.60;82.60
12426;DHT22;6277;49.824;9.562;2023-01-15T14:56:14;8.60;82.50
12426;DHT22;6277;49.824;9.562;2023-01-15T14:58:55;8.60;81.90
12426;DHT22;6277;49.824;9.562;2023-01-15T15:01:42;8.50;81.70
12426;DHT22;6277;49.824;9.562;2023-01-15T15:07:00;8.40;81.00
12426;DHT22;6277;49.824;9.562;2023-01-15T15:12:19;8.30;81.40
12426;DHT22;6277;49.824;9.562;2023-01-15T15:15:11;8.20;81.20
12426;DHT22;6277;49.824;9.562;2023-01-15T15:26:30;8.00;80.90
12426;DHT22;6277;49.824;9.562;2023-01-15T15:31:22;8.00;81.70
12426;DHT22;6277;49.824;9.562;2023-01-15T15:33:52;7.90;81.70
12426;DHT22;6277;49.824;9.562;2023-01-15T15:36:19;7.90;81.90
12426;DHT22;6277;49.824;9.562;2023-01-15T15:39:23;7.90;82.00
12426;DHT22;6277;49.824;9.562;2023-01-15T15:41:53;7.90;81.60
12426;DHT22;6277;49.824;9.562;2023-01-15T15:44:52;7.90;81.90
12426;DHT22;6277;49.824;9.562;2023-01-15T15:47:41;7.90;81.70
12426;DHT22;6277;49.824;9.562;2023-01-15T15:50:33;7.90;82.10
12426;DHT22;6277;49.824;9.562;2023-01-15T15:53:00;7.90;82.00
12426;DHT22;6277;49.824;9.562;2023-01-15T15:55:41;8.00;82.20
12426;DHT22;6277;49.824;9.562;2023-01-15T15:58:17;8.00;81.90
12426;DHT22;6277;49.824;9.562;2023-01-15T16:00:46;8.00;81.90
12426;DHT22;6277;49.824;9.562;2023-01-15T16:03:23;8.00;82.00
12426;DHT22;6277;49.824;9.562;2023-01-15T16:06:05;8.10;81.80
12426;DHT22;6277;49.824;9.562;2023-01-15T16:08:32;8.10;81.50
12426;DHT22;6277;49.824;9.562;2023-01-15T16:11:05;8.10;81.90
12426;DHT22;6277;49.824;9.562;2023-01-15T16:13:50;8.10;81.70
12426;DHT22;6277;49.824;9.562;2023-01-15T16:16:17;8.10;81.30
12426;DHT22;6277;49.824;9.562;2023-01-15T16:18:46;8.20;81.90
12426;DHT22;6277;49.824;9.562;2023-01-15T16:21:23;8.20;81.80
12426;DHT22;6277;49.824;9.562;2023-01-15T16:23:58;8.20;81.60
12426;DHT22;6277;49.824;9.562;2023-01-15T16:26:58;8.20;81.70
12426;DHT22;6277;49.824;9.562;2023-01-15T16:29:28;8.30;81.40
12426;DHT22;6277;49.824;9.562;2023-01-15T16:31:54;8.30;81.80
12426;DHT22;6277;49.824;9.562;2023-01-15T16:34:29;8.30;81.90
12426;DHT22;6277;49.824;9.562;2023-01-15T16:36:55;8.30;81.50
12426;DHT22;6277;49.824;9.562;2023-01-15T16:39:28;8.40;81.80
12426;DHT22;6277;49.824;9.562;2023-01-15T16:41:55;8.40;81.60
12426;DHT22;6277;49.824;9.562;2023-01-15T16:44:50;8.40;81.10
12426;DHT22;6277;49.824;9.562;2023-01-15T16:47:24;8.40;80.60
12426;DHT22;6277;49.824;9.562;2023-01-15T16:49:51;8.40;80.90
12426;DHT22;6277;49.824;9.562;2023-01-15T17:00:41;8.30;79.50
12426;DHT22;6277;49.824;9.562;2023-01-15T17:03:24;8.30;80.00
12426;DHT22;6277;49.824;9.562;2023-01-15T17:05:53;8.20;79.60
12426;DHT22;6277;49.824;9.562;2023-01-15T17:08:43;8.20;80.00
12426;DHT22;6277;49.824;9.562;2023-01-15T17:11:20;8.10;80.30
12426;DHT22;6277;49.824;9.562;2023-01-15T17:13:46;8.10;80.00
12426;DHT22;6277;49.824;9.562;2023-01-15T17:18:37;8.10;80.80
12426;DHT22;6277;49.824;9.562;2023-01-15T17:21:03;8.10;81.00
12426;DHT22;6277;49.824;9.562;2023-01-15T17:23:34;8.10;81.10
12426;DHT22;6277;49.824;9.562;2023-01-15T17:26:01;8.20;81.00
12426;DHT22;6277;49.824;9.562;2023-01-15T17:28:27;8.20;81.00
12426;DHT22;6277;49.824;9.562;2023-01-15T17:30:59;8.20;81.10
12426;DHT22;6277;49.824;9.562;2023-01-15T17:33:25;8.20;80.90
12426;DHT22;6277;49.824;9.562;2023-01-15T17:35:51;8.30;81.30
12426;DHT22;6277;49.824;9.562;2023-01-15T17:38:18;8.30;81.20
12426;DHT22;6277;49.824;9.562;2023-01-15T17:40:44;8.40;81.20
12426;DHT22;6277;49.824;9.562;2023-01-15T17:43:12;8.40;81.20
12426;DHT22;6277;49.824;9.562;2023-01-15T17:45:38;8.40;80.90
12426;DHT22;6277;49.824;9.562;2023-01-15T17:48:04;8.50;81.10
12426;DHT22;6277;49.824;9.562;2023-01-15T17:50:36;8.50;80.80
12426;DHT22;6277;49.824;9.562;2023-01-15T17:53:03;8.50;80.80
12426;DHT22;6277;49.824;9.562;2023-01-15T17:55:29;8.50;80.50
12426;DHT22;6277;49.824;9.562;2023-01-15T17:58:14;8.50;80.50
12426;DHT22;6277;49.824;9.562;2023-01-15T18:01:00;8.50;80.90
12426;DHT22;6277;49.824;9.562;2023-01-15T18:03:50;8.50;80.20
12426;DHT22;6277;49.824;9.562;2023-01-15T18:06:36;8.50;80.30
12426;DHT22;6277;49.824;9.562;2023-01-15T18:09:03;8.50;80.50
12426;DHT22;6277;49.824;9.562;2023-01-15T18:11:29;8.50;80.40
12426;DHT22;6277;49.824;9.562;2023-01-15T18:13:55;8.50;80.50